Union, Maine
Current Conditions -  °F | °C
As of 5:35 AM on Monday 22 Dec 2014 (Local Time) from KRKD Reporting Station
Overcast Overcast  
Wind Chill: 26°   Ceiling: 3500
Heat Index: 32°   Visibility: 10mi
Dew Point: 30°   Wind: 6mph
Humidity: 93%   Direction: 20°NNE
Pressure: 30.38"   Gusts: NA
Location:  44.21°N, 69.27°W
Report Text: KRKD 221035Z AUTO 02005KT 10SM BKN035 BKN041 OVC060 00/M01 A3038 RMK AO1
Loading
Personal Weather Stations






























Interactive Weather Map New forecast layout! Learn more

10-Day Weather Forecast

Advertisements
Track Severe Weather on mobile